sensor_id;sensor_type;location;lat;lon;timestamp;P1;durP1;ratioP1;P2;durP2;ratioP2
9838;SDS011;4958;48.150;11.506;2024-03-02T00:02:23;9.07;;;8.27;;
9838;SDS011;4958;48.150;11.506;2024-03-02T00:05:14;8.50;;;7.60;;
9838;SDS011;4958;48.150;11.506;2024-03-02T00:08:34;8.73;;;7.77;;
9838;SDS011;4958;48.150;11.506;2024-03-02T00:11:15;8.40;;;7.60;;
9838;SDS011;4958;48.150;11.506;2024-03-02T00:19:37;8.20;;;7.40;;
9838;SDS011;4958;48.150;11.506;2024-03-02T00:22:51;8.57;;;7.77;;
9838;SDS011;4958;48.150;11.506;2024-03-02T00:28:43;8.83;;;7.93;;
9838;SDS011;4958;48.150;11.506;2024-03-02T00:31:44;8.63;;;7.63;;
9838;SDS011;4958;48.150;11.506;2024-03-02T00:37:40;9.93;;;8.20;;
9838;SDS011;4958;48.150;11.506;2024-03-02T00:43:41;10.57;;;8.70;;
9838;SDS011;4958;48.150;11.506;2024-03-02T00:52:52;10.00;;;9.00;;
9838;SDS011;4958;48.150;11.506;2024-03-02T00:55:47;9.83;;;8.83;;
9838;SDS011;4958;48.150;11.506;2024-03-02T00:58:39;9.67;;;8.73;;
9838;SDS011;4958;48.150;11.506;2024-03-02T01:01:22;10.07;;;8.87;;
9838;SDS011;4958;48.150;11.506;2024-03-02T01:04:07;9.63;;;8.73;;
9838;SDS011;4958;48.150;11.506;2024-03-02T01:06:37;9.87;;;8.83;;
9838;SDS011;4958;48.150;11.506;2024-03-02T01:11:54;8.67;;;7.77;;
9838;SDS011;4958;48.150;11.506;2024-03-02T01:12:21;8.40;;;7.60;;
9838;SDS011;4958;48.150;11.506;2024-03-02T01:15:45;8.87;;;7.87;;
9838;SDS011;4958;48.150;11.506;2024-03-02T01:18:28;8.07;;;7.33;;
9838;SDS011;4958;48.150;11.506;2024-03-02T01:26:44;9.47;;;8.57;;
9838;SDS011;4958;48.150;11.506;2024-03-02T01:29:17;8.43;;;7.60;;
9838;SDS011;4958;48.150;11.506;2024-03-02T01:32:07;9.03;;;8.13;;
9838;SDS011;4958;48.150;11.506;2024-03-02T01:34:39;9.00;;;8.10;;
9838;SDS011;4958;48.150;11.506;2024-03-02T01:37:32;8.60;;;7.70;;
9838;SDS011;4958;48.150;11.506;2024-03-02T01:40:16;8.90;;;8.07;;
9838;SDS011;4958;48.150;11.506;2024-03-02T01:43:03;9.17;;;8.20;;
9838;SDS011;4958;48.150;11.506;2024-03-02T01:45:45;9.27;;;8.27;;
9838;SDS011;4958;48.150;11.506;2024-03-02T01:49:14;9.53;;;8.53;;
9838;SDS011;4958;48.150;11.506;2024-03-02T01:51:56;9.60;;;8.70;;
9838;SDS011;4958;48.150;11.506;2024-03-02T01:54:43;9.57;;;8.37;;
9838;SDS011;4958;48.150;11.506;2024-03-02T01:57:36;9.60;;;8.60;;
9838;SDS011;4958;48.150;11.506;2024-03-02T02:00:17;9.80;;;8.80;;
9838;SDS011;4958;48.150;11.506;2024-03-02T02:03:09;9.80;;;8.80;;
9838;SDS011;4958;48.150;11.506;2024-03-02T02:05:52;9.30;;;8.40;;
9838;SDS011;4958;48.150;11.506;2024-03-02T02:11:30;9.33;;;8.43;;
9838;SDS011;4958;48.150;11.506;2024-03-02T02:14:34;9.53;;;8.53;;
9838;SDS011;4958;48.150;11.506;2024-03-02T02:17:08;8.77;;;7.97;;
9838;SDS011;4958;48.150;11.506;2024-03-02T02:19:41;8.80;;;7.90;;
9838;SDS011;4958;48.150;11.506;2024-03-02T02:22:42;10.03;;;9.03;;
9838;SDS011;4958;48.150;11.506;2024-03-02T02:25:44;10.60;;;7.80;;
9838;SDS011;4958;48.150;11.506;2024-03-02T02:29:02;8.77;;;7.87;;
9838;SDS011;4958;48.150;11.506;2024-03-02T02:32:00;9.37;;;7.77;;
9838;SDS011;4958;48.150;11.506;2024-03-02T02:40:34;8.87;;;8.03;;
9838;SDS011;4958;48.150;11.506;2024-03-02T02:43:30;8.67;;;7.83;;
9838;SDS011;4958;48.150;11.506;2024-03-02T02:46:53;9.30;;;8.33;;
9838;SDS011;4958;48.150;11.506;2024-03-02T02:50:03;8.80;;;7.90;;
9838;SDS011;4958;48.150;11.506;2024-03-02T02:52:51;8.77;;;7.67;;
9838;SDS011;4958;48.150;11.506;2024-03-02T02:55:51;8.67;;;7.87;;
9838;SDS011;4958;48.150;11.506;2024-03-02T03:02:22;8.40;;;7.60;;
9838;SDS011;4958;48.150;11.506;2024-03-02T03:05:52;8.77;;;7.87;;
9838;SDS011;4958;48.150;11.506;2024-03-02T03:11:51;9.27;;;8.37;;
9838;SDS011;4958;48.150;11.506;2024-03-02T03:16:03;10.07;;;9.07;;
9838;SDS011;4958;48.150;11.506;2024-03-02T03:18:33;9.13;;;8.23;;
9838;SDS011;4958;48.150;11.506;2024-03-02T03:21:26;9.43;;;8.47;;
9838;SDS011;4958;48.150;11.506;2024-03-02T03:24:14;9.10;;;8.20;;
9838;SDS011;4958;48.150;11.506;2024-03-02T03:29:56;9.63;;;8.73;;
9838;SDS011;4958;48.150;11.506;2024-03-02T03:35:53;10.33;;;9.23;;
9838;SDS011;4958;48.150;11.506;2024-03-02T03:42:22;10.93;;;9.63;;
9838;SDS011;4958;48.150;11.506;2024-03-02T03:45:05;10.93;;;9.80;;
9838;SDS011;4958;48.150;11.506;2024-03-02T03:48:22;11.57;;;10.20;;
9838;SDS011;4958;48.150;11.506;2024-03-02T03:51:10;12.87;;;9.87;;
9838;SDS011;4958;48.150;11.506;2024-03-02T04:01:18;12.43;;;10.20;;
9838;SDS011;4958;48.150;11.506;2024-03-02T04:03:56;11.53;;;10.30;;
9838;SDS011;4958;48.150;11.506;2024-03-02T04:06:54;11.33;;;9.80;;
9838;SDS011;4958;48.150;11.506;2024-03-02T04:09:47;11.47;;;10.27;;
9838;SDS011;4958;48.150;11.506;2024-03-02T04:12:54;10.73;;;9.63;;
9838;SDS011;4958;48.150;11.506;2024-03-02T04:15:34;18.60;;;16.60;;
9838;SDS011;4958;48.150;11.506;2024-03-02T04:18:17;11.57;;;10.07;;
9838;SDS011;4958;48.150;11.506;2024-03-02T04:20:56;10.80;;;9.70;;
9838;SDS011;4958;48.150;11.506;2024-03-02T04:23:39;10.30;;;9.30;;
9838;SDS011;4958;48.150;11.506;2024-03-02T04:26:29;11.27;;;10.07;;
9838;SDS011;4958;48.150;11.506;2024-03-02T04:36:35;10.30;;;9.20;;
9838;SDS011;4958;48.150;11.506;2024-03-02T04:45:37;11.10;;;9.93;;
9838;SDS011;4958;48.150;11.506;2024-03-02T05:01:25;12.93;;;9.80;;
9838;SDS011;4958;48.150;11.506;2024-03-02T05:04:16;11.30;;;10.10;;
9838;SDS011;4958;48.150;11.506;2024-03-02T05:10:00;10.87;;;9.77;;
9838;SDS011;4958;48.150;11.506;2024-03-02T05:22:30;11.87;;;10.53;;
9838;SDS011;4958;48.150;11.506;2024-03-02T05:25:19;11.63;;;10.53;;
9838;SDS011;4958;48.150;11.506;2024-03-02T05:28:24;11.60;;;10.13;;
9838;SDS011;4958;48.150;11.506;2024-03-02T05:31:29;10.77;;;9.77;;
9838;SDS011;4958;48.150;11.506;2024-03-02T05:35:47;12.63;;;10.47;;
9838;SDS011;4958;48.150;11.506;2024-03-02T05:47:46;12.90;;;10.80;;
9838;SDS011;4958;48.150;11.506;2024-03-02T05:50:31;11.67;;;10.47;;
9838;SDS011;4958;48.150;11.506;2024-03-02T05:54:50;12.40;;;11.07;;
9838;SDS011;4958;48.150;11.506;2024-03-02T05:57:10;12.00;;;10.77;;
9838;SDS011;4958;48.150;11.506;2024-03-02T06:03:35;12.13;;;10.80;;
9838;SDS011;4958;48.150;11.506;2024-03-02T06:06:37;12.57;;;11.27;;
9838;SDS011;4958;48.150;11.506;2024-03-02T06:09:27;12.50;;;11.27;;
9838;SDS011;4958;48.150;11.506;2024-03-02T06:15:41;12.47;;;11.17;;
9838;SDS011;4958;48.150;11.506;2024-03-02T06:19:14;12.90;;;11.17;;
9838;SDS011;4958;48.150;11.506;2024-03-02T06:22:31;12.87;;;11.57;;
9838;SDS011;4958;48.150;11.506;2024-03-02T06:32:06;14.20;;;12.70;;
9838;SDS011;4958;48.150;11.506;2024-03-02T06:38:16;13.13;;;11.50;;
9838;SDS011;4958;48.150;11.506;2024-03-02T06:41:14;12.83;;;11.47;;
9838;SDS011;4958;48.150;11.506;2024-03-02T06:44:21;12.97;;;11.67;;
9838;SDS011;4958;48.150;11.506;2024-03-02T06:47:10;13.47;;;11.50;;
9838;SDS011;4958;48.150;11.506;2024-03-02T06:50:14;21.53;;;11.97;;
9838;SDS011;4958;48.150;11.506;2024-03-02T06:53:03;82.90;;;18.50;;
9838;SDS011;4958;48.150;11.506;2024-03-02T06:55:57;17.00;;;11.30;;
9838;SDS011;4958;48.150;11.506;2024-03-02T06:59:16;29.87;;;14.20;;
9838;SDS011;4958;48.150;11.506;2024-03-02T07:01:50;15.33;;;10.17;;
9838;SDS011;4958;48.150;11.506;2024-03-02T07:04:41;28.37;;;11.07;;
9838;SDS011;4958;48.150;11.506;2024-03-02T07:10:35;12.80;;;11.43;;
9838;SDS011;4958;48.150;11.506;2024-03-02T07:14:35;13.70;;;11.73;;
9838;SDS011;4958;48.150;11.506;2024-03-02T07:20:06;12.90;;;11.60;;
9838;SDS011;4958;48.150;11.506;2024-03-02T07:22:58;12.53;;;11.27;;
9838;SDS011;4958;48.150;11.506;2024-03-02T07:28:36;13.63;;;12.23;;
9838;SDS011;4958;48.150;11.506;2024-03-02T07:34:58;12.93;;;11.63;;
9838;SDS011;4958;48.150;11.506;2024-03-02T07:51:08;13.63;;;12.13;;
9838;SDS011;4958;48.150;11.506;2024-03-02T08:04:25;13.87;;;12.47;;
9838;SDS011;4958;48.150;11.506;2024-03-02T08:07:37;14.33;;;12.83;;
9838;SDS011;4958;48.150;11.506;2024-03-02T08:10:23;13.53;;;12.13;;
9838;SDS011;4958;48.150;11.506;2024-03-02T08:14:03;11.97;;;10.77;;
9838;SDS011;4958;48.150;11.506;2024-03-02T08:17:49;11.57;;;9.57;;
9838;SDS011;4958;48.150;11.506;2024-03-02T08:23:27;8.20;;;7.40;;
9838;SDS011;4958;48.150;11.506;2024-03-02T08:29:17;8.27;;;6.80;;
9838;SDS011;4958;48.150;11.506;2024-03-02T08:33:37;7.43;;;6.73;;
9838;SDS011;4958;48.150;11.506;2024-03-02T08:35:09;6.97;;;6.37;;
9838;SDS011;4958;48.150;11.506;2024-03-02T08:40:58;7.10;;;6.50;;
9838;SDS011;4958;48.150;11.506;2024-03-02T08:43:44;7.45;;;6.85;;
9838;SDS011;4958;48.150;11.506;2024-03-02T08:46:33;6.78;;;6.18;;
9838;SDS011;4958;48.150;11.506;2024-03-02T08:49:38;7.10;;;5.65;;
9838;SDS011;4958;48.150;11.506;2024-03-02T08:52:20;7.10;;;6.45;;
9838;SDS011;4958;48.150;11.506;2024-03-02T08:55:05;8.05;;;7.28;;
9838;SDS011;4958;48.150;11.506;2024-03-02T08:57:45;7.22;;;6.63;;
9838;SDS011;4958;48.150;11.506;2024-03-02T09:00:22;9.05;;;6.78;;
9838;SDS011;4958;48.150;11.506;2024-03-02T09:03:05;7.28;;;6.35;;
9838;SDS011;4958;48.150;11.506;2024-03-02T09:05:44;8.98;;;7.63;;
9838;SDS011;4958;48.150;11.506;2024-03-02T09:08:35;9.63;;;8.20;;
9838;SDS011;4958;48.150;11.506;2024-03-02T09:11:22;8.98;;;8.18;;
9838;SDS011;4958;48.150;11.506;2024-03-02T09:14:14;9.35;;;8.50;;
9838;SDS011;4958;48.150;11.506;2024-03-02T09:16:41;9.90;;;9.00;;
9838;SDS011;4958;48.150;11.506;2024-03-02T09:19:16;9.70;;;8.70;;
9838;SDS011;4958;48.150;11.506;2024-03-02T09:22:01;8.20;;;7.50;;
9838;SDS011;4958;48.150;11.506;2024-03-02T09:24:36;9.10;;;6.80;;
9838;SDS011;4958;48.150;11.506;2024-03-02T09:30:08;8.57;;;7.57;;
9838;SDS011;4958;48.150;11.506;2024-03-02T09:32:44;11.50;;;8.45;;
9838;SDS011;4958;48.150;11.506;2024-03-02T09:35:15;9.85;;;8.75;;
9838;SDS011;4958;48.150;11.506;2024-03-02T09:37:45;9.07;;;8.15;;
9838;SDS011;4958;48.150;11.506;2024-03-02T09:40:29;10.82;;;9.07;;
9838;SDS011;4958;48.150;11.506;2024-03-02T09:42:57;10.52;;;9.25;;
9838;SDS011;4958;48.150;11.506;2024-03-02T09:45:25;11.30;;;9.60;;
9838;SDS011;4958;48.150;11.506;2024-03-02T09:47:52;11.90;;;9.93;;
9838;SDS011;4958;48.150;11.506;2024-03-02T09:50:18;12.40;;;10.25;;
9838;SDS011;4958;48.150;11.506;2024-03-02T09:52:47;9.95;;;9.00;;
9838;SDS011;4958;48.150;11.506;2024-03-02T09:55:14;9.77;;;8.88;;
9838;SDS011;4958;48.150;11.506;2024-03-02T09:57:42;9.77;;;8.88;;
9838;SDS011;4958;48.150;11.506;2024-03-02T10:00:10;8.73;;;7.93;;
9838;SDS011;4958;48.150;11.506;2024-03-02T10:02:39;7.75;;;7.05;;
9838;SDS011;4958;48.150;11.506;2024-03-02T10:05:06;7.57;;;6.88;;
9838;SDS011;4958;48.150;11.506;2024-03-02T10:07:33;8.00;;;7.30;;
9838;SDS011;4958;48.150;11.506;2024-03-02T10:10:00;8.90;;;7.30;;
9838;SDS011;4958;48.150;11.506;2024-03-02T10:12:39;9.00;;;7.95;;
9838;SDS011;4958;48.150;11.506;2024-03-02T10:15:07;8.60;;;7.88;;
9838;SDS011;4958;48.150;11.506;2024-03-02T10:17:36;9.52;;;8.15;;
9838;SDS011;4958;48.150;11.506;2024-03-02T10:20:22;8.80;;;7.80;;
9838;SDS011;4958;48.150;11.506;2024-03-02T10:22:49;8.10;;;7.38;;
9838;SDS011;4958;48.150;11.506;2024-03-02T10:25:28;9.82;;;7.15;;
9838;SDS011;4958;48.150;11.506;2024-03-02T10:27:57;13.45;;;6.88;;
9838;SDS011;4958;48.150;11.506;2024-03-02T10:30:24;11.15;;;7.35;;
9838;SDS011;4958;48.150;11.506;2024-03-02T10:32:52;8.00;;;7.20;;
9838;SDS011;4958;48.150;11.506;2024-03-02T10:35:19;8.00;;;7.20;;
9838;SDS011;4958;48.150;11.506;2024-03-02T10:37:47;7.63;;;6.80;;
9838;SDS011;4958;48.150;11.506;2024-03-02T10:40:13;7.00;;;6.32;;
9838;SDS011;4958;48.150;11.506;2024-03-02T10:42:40;6.60;;;6.00;;
9838;SDS011;4958;48.150;11.506;2024-03-02T10:45:08;6.32;;;5.72;;
9838;SDS011;4958;48.150;11.506;2024-03-02T10:47:36;7.28;;;6.57;;
9838;SDS011;4958;48.150;11.506;2024-03-02T10:50:05;6.40;;;5.80;;
9838;SDS011;4958;48.150;11.506;2024-03-02T10:52:34;8.93;;;6.30;;
9838;SDS011;4958;48.150;11.506;2024-03-02T10:55:00;7.32;;;6.60;;
9838;SDS011;4958;48.150;11.506;2024-03-02T10:57:31;7.50;;;6.50;;
9838;SDS011;4958;48.150;11.506;2024-03-02T11:00:03;7.28;;;6.57;;
9838;SDS011;4958;48.150;11.506;2024-03-02T11:02:32;9.88;;;5.75;;
9838;SDS011;4958;48.150;11.506;2024-03-02T11:05:07;8.48;;;6.35;;
9838;SDS011;4958;48.150;11.506;2024-03-02T11:07:37;6.18;;;5.57;;
9838;SDS011;4958;48.150;11.506;2024-03-02T11:10:04;6.47;;;5.75;;
9838;SDS011;4958;48.150;11.506;2024-03-02T11:12:35;7.28;;;5.35;;
9838;SDS011;4958;48.150;11.506;2024-03-02T11:15:05;6.35;;;5.75;;
9838;SDS011;4958;48.150;11.506;2024-03-02T11:17:35;7.55;;;6.53;;
9838;SDS011;4958;48.150;11.506;2024-03-02T11:20:03;8.63;;;7.72;;
9838;SDS011;4958;48.150;11.506;2024-03-02T11:22:35;10.75;;;8.52;;
9838;SDS011;4958;48.150;11.506;2024-03-02T11:25:02;15.73;;;6.60;;
9838;SDS011;4958;48.150;11.506;2024-03-02T11:33:22;9.98;;;8.15;;
9838;SDS011;4958;48.150;11.506;2024-03-02T11:35:52;9.80;;;8.80;;
9838;SDS011;4958;48.150;11.506;2024-03-02T11:38:20;10.70;;;9.07;;
9838;SDS011;4958;48.150;11.506;2024-03-02T11:40:46;10.15;;;8.90;;
9838;SDS011;4958;48.150;11.506;2024-03-02T11:43:13;9.48;;;8.52;;
9838;SDS011;4958;48.150;11.506;2024-03-02T11:45:41;20.95;;;18.20;;
9838;SDS011;4958;48.150;11.506;2024-03-02T11:48:09;13.63;;;12.23;;
9838;SDS011;4958;48.150;11.506;2024-03-02T11:50:40;10.70;;;9.63;;
9838;SDS011;4958;48.150;11.506;2024-03-02T11:53:08;10.85;;;9.50;;
9838;SDS011;4958;48.150;11.506;2024-03-02T11:55:37;11.90;;;9.27;;
9838;SDS011;4958;48.150;11.506;2024-03-02T11:58:04;9.93;;;8.93;;
9838;SDS011;4958;48.150;11.506;2024-03-02T12:00:31;10.18;;;9.13;;
9838;SDS011;4958;48.150;11.506;2024-03-02T12:02:59;11.02;;;9.77;;
9838;SDS011;4958;48.150;11.506;2024-03-02T12:05:27;10.55;;;9.48;;
9838;SDS011;4958;48.150;11.506;2024-03-02T12:07:55;11.70;;;10.50;;
9838;SDS011;4958;48.150;11.506;2024-03-02T12:10:22;11.60;;;10.45;;
9838;SDS011;4958;48.150;11.506;2024-03-02T12:12:56;10.60;;;9.23;;
9838;SDS011;4958;48.150;11.506;2024-03-02T12:15:23;13.38;;;11.00;;
9838;SDS011;4958;48.150;11.506;2024-03-02T12:17:52;11.40;;;10.18;;
9838;SDS011;4958;48.150;11.506;2024-03-02T12:20:20;10.13;;;9.18;;
9838;SDS011;4958;48.150;11.506;2024-03-02T12:22:46;11.98;;;10.38;;
9838;SDS011;4958;48.150;11.506;2024-03-02T12:25:13;10.88;;;9.75;;
9838;SDS011;4958;48.150;11.506;2024-03-02T12:27:40;11.07;;;9.98;;
9838;SDS011;4958;48.150;11.506;2024-03-02T12:30:08;11.57;;;9.95;;
9838;SDS011;4958;48.150;11.506;2024-03-02T12:32:35;13.07;;;10.75;;
9838;SDS011;4958;48.150;11.506;2024-03-02T12:35:07;13.23;;;11.10;;
9838;SDS011;4958;48.150;11.506;2024-03-02T12:37:41;11.45;;;10.25;;
9838;SDS011;4958;48.150;11.506;2024-03-02T12:40:09;12.23;;;11.02;;
9838;SDS011;4958;48.150;11.506;2024-03-02T12:42:36;18.35;;;16.45;;
9838;SDS011;4958;48.150;11.506;2024-03-02T12:45:05;18.48;;;15.63;;
9838;SDS011;4958;48.150;11.506;2024-03-02T12:47:33;11.80;;;10.55;;
9838;SDS011;4958;48.150;11.506;2024-03-02T12:50:00;11.73;;;10.52;;
9838;SDS011;4958;48.150;11.506;2024-03-02T12:52:27;12.93;;;11.52;;
9838;SDS011;4958;48.150;11.506;2024-03-02T12:54:53;13.55;;;12.13;;
9838;SDS011;4958;48.150;11.506;2024-03-02T12:57:24;13.00;;;11.68;;
9838;SDS011;4958;48.150;11.506;2024-03-02T12:59:52;13.50;;;12.10;;
9838;SDS011;4958;48.150;11.506;2024-03-02T13:02:22;14.35;;;12.55;;
9838;SDS011;4958;48.150;11.506;2024-03-02T13:04:53;12.57;;;11.38;;
9838;SDS011;4958;48.150;11.506;2024-03-02T13:07:20;13.35;;;12.05;;
9838;SDS011;4958;48.150;11.506;2024-03-02T13:09:47;13.55;;;11.88;;
9838;SDS011;4958;48.150;11.506;2024-03-02T13:12:14;13.55;;;12.15;;
9838;SDS011;4958;48.150;11.506;2024-03-02T13:14:41;13.45;;;12.05;;
9838;SDS011;4958;48.150;11.506;2024-03-02T13:17:08;12.43;;;11.18;;
9838;SDS011;4958;48.150;11.506;2024-03-02T13:19:34;13.63;;;11.57;;
9838;SDS011;4958;48.150;11.506;2024-03-02T13:22:02;11.77;;;10.57;;
9838;SDS011;4958;48.150;11.506;2024-03-02T13:24:29;11.00;;;9.88;;
9838;SDS011;4958;48.150;11.506;2024-03-02T13:26:56;11.13;;;10.02;;
9838;SDS011;4958;48.150;11.506;2024-03-02T13:29:23;11.60;;;10.30;;
9838;SDS011;4958;48.150;11.506;2024-03-02T13:31:49;12.68;;;11.50;;
9838;SDS011;4958;48.150;11.506;2024-03-02T13:34:16;11.88;;;10.63;;
9838;SDS011;4958;48.150;11.506;2024-03-02T13:36:42;12.02;;;10.77;;
9838;SDS011;4958;48.150;11.506;2024-03-02T13:39:10;11.52;;;10.32;;
9838;SDS011;4958;48.150;11.506;2024-03-02T13:41:40;19.05;;;17.05;;
9838;SDS011;4958;48.150;11.506;2024-03-02T13:44:07;20.25;;;18.15;;
9838;SDS011;4958;48.150;11.506;2024-03-02T13:46:33;12.25;;;11.07;;
9838;SDS011;4958;48.150;11.506;2024-03-02T13:48:59;13.38;;;12.07;;
9838;SDS011;4958;48.150;11.506;2024-03-02T13:51:26;13.45;;;12.02;;
9838;SDS011;4958;48.150;11.506;2024-03-02T13:53:52;12.98;;;11.77;;
9838;SDS011;4958;48.150;11.506;2024-03-02T13:56:20;14.10;;;11.55;;
9838;SDS011;4958;48.150;11.506;2024-03-02T13:58:47;13.73;;;12.43;;
9838;SDS011;4958;48.150;11.506;2024-03-02T14:01:13;14.02;;;11.95;;
9838;SDS011;4958;48.150;11.506;2024-03-02T14:03:40;13.32;;;12.02;;
9838;SDS011;4958;48.150;11.506;2024-03-02T14:06:07;14.85;;;12.68;;
9838;SDS011;4958;48.150;11.506;2024-03-02T14:08:34;13.60;;;12.27;;
9838;SDS011;4958;48.150;11.506;2024-03-02T14:11:01;14.85;;;13.20;;
9838;SDS011;4958;48.150;11.506;2024-03-02T14:13:28;13.68;;;12.20;;
9838;SDS011;4958;48.150;11.506;2024-03-02T14:15:55;34.30;;;30.85;;
9838;SDS011;4958;48.150;11.506;2024-03-02T14:18:23;21.80;;;19.48;;
9838;SDS011;4958;48.150;11.506;2024-03-02T14:20:49;14.30;;;12.80;;
9838;SDS011;4958;48.150;11.506;2024-03-02T14:23:17;12.80;;;11.50;;
9838;SDS011;4958;48.150;11.506;2024-03-02T14:25:44;12.32;;;11.02;;
9838;SDS011;4958;48.150;11.506;2024-03-02T14:28:11;11.77;;;10.40;;
9838;SDS011;4958;48.150;11.506;2024-03-02T14:30:39;11.75;;;10.55;;
9838;SDS011;4958;48.150;11.506;2024-03-02T14:33:06;11.50;;;10.30;;
9838;SDS011;4958;48.150;11.506;2024-03-02T14:35:32;11.73;;;10.52;;
9838;SDS011;4958;48.150;11.506;2024-03-02T14:37:59;11.90;;;10.38;;
9838;SDS011;4958;48.150;11.506;2024-03-02T14:40:25;13.02;;;10.55;;
9838;SDS011;4958;48.150;11.506;2024-03-02T14:42:54;11.00;;;9.90;;
9838;SDS011;4958;48.150;11.506;2024-03-02T14:45:23;10.68;;;9.57;;
9838;SDS011;4958;48.150;11.506;2024-03-02T14:47:51;11.32;;;10.02;;
9838;SDS011;4958;48.150;11.506;2024-03-02T14:50:18;11.82;;;9.55;;
9838;SDS011;4958;48.150;11.506;2024-03-02T14:52:44;10.63;;;9.52;;
9838;SDS011;4958;48.150;11.506;2024-03-02T14:55:11;11.68;;;9.65;;
9838;SDS011;4958;48.150;11.506;2024-03-02T14:57:39;10.55;;;9.43;;
9838;SDS011;4958;48.150;11.506;2024-03-02T15:00:06;38.95;;;12.75;;
9838;SDS011;4958;48.150;11.506;2024-03-02T15:02:35;12.70;;;10.70;;
9838;SDS011;4958;48.150;11.506;2024-03-02T15:05:03;10.98;;;9.88;;
9838;SDS011;4958;48.150;11.506;2024-03-02T15:07:32;11.27;;;10.02;;
9838;SDS011;4958;48.150;11.506;2024-03-02T15:09:58;12.48;;;10.75;;
9838;SDS011;4958;48.150;11.506;2024-03-02T15:12:25;12.30;;;11.00;;
9838;SDS011;4958;48.150;11.506;2024-03-02T15:14:54;12.80;;;11.43;;
9838;SDS011;4958;48.150;11.506;2024-03-02T15:17:21;11.43;;;10.32;;
9838;SDS011;4958;48.150;11.506;2024-03-02T15:19:48;12.43;;;11.07;;
9838;SDS011;4958;48.150;11.506;2024-03-02T15:22:16;13.88;;;11.95;;
9838;SDS011;4958;48.150;11.506;2024-03-02T15:24:42;12.82;;;11.50;;
9838;SDS011;4958;48.150;11.506;2024-03-02T15:27:10;14.93;;;13.48;;
9838;SDS011;4958;48.150;11.506;2024-03-02T15:29:38;14.48;;;12.60;;
9838;SDS011;4958;48.150;11.506;2024-03-02T15:32:05;13.02;;;11.73;;
9838;SDS011;4958;48.150;11.506;2024-03-02T15:34:32;13.73;;;12.30;;
9838;SDS011;4958;48.150;11.506;2024-03-02T15:36:58;12.77;;;11.48;;
9838;SDS011;4958;48.150;11.506;2024-03-02T15:39:27;13.55;;;12.02;;
9838;SDS011;4958;48.150;11.506;2024-03-02T15:41:54;14.18;;;12.68;;
9838;SDS011;4958;48.150;11.506;2024-03-02T15:44:20;27.20;;;24.42;;
9838;SDS011;4958;48.150;11.506;2024-03-02T15:46:46;15.50;;;14.00;;
9838;SDS011;4958;48.150;11.506;2024-03-02T15:49:18;14.57;;;13.07;;
9838;SDS011;4958;48.150;11.506;2024-03-02T15:52:06;14.18;;;12.60;;
9838;SDS011;4958;48.150;11.506;2024-03-02T15:54:35;14.20;;;12.68;;
9838;SDS011;4958;48.150;11.506;2024-03-02T15:57:17;40.30;;;34.88;;
9838;SDS011;4958;48.150;11.506;2024-03-02T16:00:06;17.83;;;16.00;;
9838;SDS011;4958;48.150;11.506;2024-03-02T16:02:39;15.13;;;13.63;;
9838;SDS011;4958;48.150;11.506;2024-03-02T16:05:06;13.55;;;12.15;;
9838;SDS011;4958;48.150;11.506;2024-03-02T16:07:39;13.30;;;12.07;;
9838;SDS011;4958;48.150;11.506;2024-03-02T16:10:10;15.55;;;12.77;;
9838;SDS011;4958;48.150;11.506;2024-03-02T16:12:42;14.85;;;13.15;;
9838;SDS011;4958;48.150;11.506;2024-03-02T16:16:48;15.20;;;13.60;;
9838;SDS011;4958;48.150;11.506;2024-03-02T16:18:32;15.13;;;13.60;;
9838;SDS011;4958;48.150;11.506;2024-03-02T16:21:25;14.57;;;13.07;;
9838;SDS011;4958;48.150;11.506;2024-03-02T16:23:51;16.15;;;14.55;;
9838;SDS011;4958;48.150;11.506;2024-03-02T16:26:25;16.98;;;15.07;;
9838;SDS011;4958;48.150;11.506;2024-03-02T16:29:01;19.60;;;16.70;;
9838;SDS011;4958;48.150;11.506;2024-03-02T16:32:06;29.45;;;26.30;;
9838;SDS011;4958;48.150;11.506;2024-03-02T16:34:40;22.67;;;19.92;;
9838;SDS011;4958;48.150;11.506;2024-03-02T16:37:22;18.95;;;16.58;;
9838;SDS011;4958;48.150;11.506;2024-03-02T16:40:01;16.58;;;14.40;;
9838;SDS011;4958;48.150;11.506;2024-03-02T16:42:39;17.55;;;15.25;;
9838;SDS011;4958;48.150;11.506;2024-03-02T16:45:34;16.27;;;14.45;;
9838;SDS011;4958;48.150;11.506;2024-03-02T16:48:13;17.75;;;14.85;;
9838;SDS011;4958;48.150;11.506;2024-03-02T16:52:04;20.77;;;15.18;;
9838;SDS011;4958;48.150;11.506;2024-03-02T16:53:36;17.35;;;14.57;;
9838;SDS011;4958;48.150;11.506;2024-03-02T16:56:02;18.70;;;16.67;;
9838;SDS011;4958;48.150;11.506;2024-03-02T16:58:50;27.67;;;24.38;;
9838;SDS011;4958;48.150;11.506;2024-03-02T17:01:39;17.70;;;15.73;;
9838;SDS011;4958;48.150;11.506;2024-03-02T17:04:40;17.98;;;14.98;;
9838;SDS011;4958;48.150;11.506;2024-03-02T17:08:05;18.20;;;15.38;;
9838;SDS011;4958;48.150;11.506;2024-03-02T17:10:50;18.23;;;15.32;;
9838;SDS011;4958;48.150;11.506;2024-03-02T17:13:41;21.08;;;16.65;;
9838;SDS011;4958;48.150;11.506;2024-03-02T17:16:27;52.87;;;45.13;;
9838;SDS011;4958;48.150;11.506;2024-03-02T17:18:53;23.50;;;20.97;;
9838;SDS011;4958;48.150;11.506;2024-03-02T17:21:25;19.07;;;15.57;;
9838;SDS011;4958;48.150;11.506;2024-03-02T17:24:09;18.10;;;15.37;;
9838;SDS011;4958;48.150;11.506;2024-03-02T17:26:37;18.45;;;15.55;;
9838;SDS011;4958;48.150;11.506;2024-03-02T17:29:11;20.00;;;15.87;;
9838;SDS011;4958;48.150;11.506;2024-03-02T17:31:52;18.07;;;16.10;;
9838;SDS011;4958;48.150;11.506;2024-03-02T17:34:27;19.80;;;15.70;;
9838;SDS011;4958;48.150;11.506;2024-03-02T17:37:02;18.33;;;15.63;;
9838;SDS011;4958;48.150;11.506;2024-03-02T17:39:53;18.73;;;15.90;;
9838;SDS011;4958;48.150;11.506;2024-03-02T17:42:23;19.23;;;16.10;;
9838;SDS011;4958;48.150;11.506;2024-03-02T17:45:04;17.80;;;15.60;;
9838;SDS011;4958;48.150;11.506;2024-03-02T17:47:42;19.70;;;15.93;;
9838;SDS011;4958;48.150;11.506;2024-03-02T17:50:10;19.17;;;15.50;;
9838;SDS011;4958;48.150;11.506;2024-03-02T17:52:46;18.87;;;16.33;;
9838;SDS011;4958;48.150;11.506;2024-03-02T17:55:29;22.93;;;17.20;;
9838;SDS011;4958;48.150;11.506;2024-03-02T17:58:12;23.20;;;17.30;;
9838;SDS011;4958;48.150;11.506;2024-03-02T18:00:52;20.53;;;16.00;;
9838;SDS011;4958;48.150;11.506;2024-03-02T18:03:33;20.90;;;16.73;;
9838;SDS011;4958;48.150;11.506;2024-03-02T18:06:02;22.10;;;17.57;;
9838;SDS011;4958;48.150;11.506;2024-03-02T18:08:50;22.20;;;18.27;;
9838;SDS011;4958;48.150;11.506;2024-03-02T18:11:33;21.80;;;16.60;;
9838;SDS011;4958;48.150;11.506;2024-03-02T18:14:22;23.47;;;18.47;;
9838;SDS011;4958;48.150;11.506;2024-03-02T18:16:51;21.03;;;17.67;;
9838;SDS011;4958;48.150;11.506;2024-03-02T18:19:21;22.73;;;18.60;;
9838;SDS011;4958;48.150;11.506;2024-03-02T18:21:48;22.37;;;18.30;;
9838;SDS011;4958;48.150;11.506;2024-03-02T18:24:14;25.00;;;18.17;;
9838;SDS011;4958;48.150;11.506;2024-03-02T18:26:42;22.67;;;18.27;;
9838;SDS011;4958;48.150;11.506;2024-03-02T18:29:11;23.07;;;18.00;;
9838;SDS011;4958;48.150;11.506;2024-03-02T18:31:38;24.13;;;18.60;;
9838;SDS011;4958;48.150;11.506;2024-03-02T18:34:06;22.50;;;18.40;;
9838;SDS011;4958;48.150;11.506;2024-03-02T18:36:34;23.20;;;19.03;;
9838;SDS011;4958;48.150;11.506;2024-03-02T18:39:01;25.00;;;19.17;;
9838;SDS011;4958;48.150;11.506;2024-03-02T18:41:27;23.10;;;18.10;;
9838;SDS011;4958;48.150;11.506;2024-03-02T18:43:53;21.30;;;17.40;;
9838;SDS011;4958;48.150;11.506;2024-03-02T18:46:20;23.03;;;18.57;;
9838;SDS011;4958;48.150;11.506;2024-03-02T18:48:46;24.43;;;18.50;;
9838;SDS011;4958;48.150;11.506;2024-03-02T18:51:13;20.50;;;16.97;;
9838;SDS011;4958;48.150;11.506;2024-03-02T18:53:41;23.60;;;18.43;;
9838;SDS011;4958;48.150;11.506;2024-03-02T18:56:09;22.90;;;18.30;;
9838;SDS011;4958;48.150;11.506;2024-03-02T18:58:35;23.80;;;18.43;;
9838;SDS011;4958;48.150;11.506;2024-03-02T19:01:03;22.50;;;17.90;;